createdAt,value
2018-04-23T00:00:28.662Z,14.67
2018-04-23T00:02:56.280Z,19.17
2018-04-23T00:05:23.822Z,12.60
2018-04-23T00:07:51.332Z,17.47
2018-04-23T00:10:18.953Z,12.30
2018-04-23T00:12:46.466Z,20.97
2018-04-23T00:15:14.070Z,15.63
2018-04-23T00:17:41.571Z,20.60
2018-04-23T00:20:09.097Z,15.20
2018-04-23T00:22:36.752Z,17.67
2018-04-23T00:25:04.308Z,16.67
2018-04-23T00:27:31.847Z,16.60
2018-04-23T00:30:00.140Z,15.60
2018-04-23T00:32:28.412Z,10.83
2018-04-23T00:34:55.961Z,17.70
2018-04-23T00:37:24.240Z,17.40
2018-04-23T00:39:52.519Z,19.63
2018-04-23T00:42:20.942Z,17.03
2018-04-23T00:44:48.462Z,18.80
2018-04-23T00:47:16.756Z,16.63
2018-04-23T00:49:44.317Z,14.27
2018-04-23T00:52:11.828Z,15.03
2018-04-23T00:54:39.433Z,15.90
2018-04-23T00:57:07.727Z,18.40
2018-04-23T00:59:35.277Z,17.93
2018-04-23T01:02:02.835Z,15.37
2018-04-23T01:04:30.399Z,20.17
2018-04-23T01:06:57.966Z,14.67
2018-04-23T01:09:25.512Z,15.30
2018-04-23T01:11:53.083Z,18.37
2018-04-23T01:14:20.645Z,15.50
2018-04-23T01:16:48.174Z,13.00
2018-04-23T01:19:16.457Z,15.40
2018-04-23T01:21:44.749Z,10.30
2018-04-23T01:24:12.278Z,10.83
2018-04-23T01:26:39.813Z,12.47
2018-04-23T01:29:07.325Z,14.87
2018-04-23T01:31:35.599Z,9.93
2018-04-23T01:34:03.135Z,12.27
2018-04-23T01:36:30.731Z,11.53
2018-04-23T01:38:58.241Z,10.97
2018-04-23T01:41:25.764Z,8.97
2018-04-23T01:43:53.283Z,10.80
2018-04-23T01:46:21.563Z,8.97
2018-04-23T01:48:49.869Z,7.47
2018-04-23T01:51:17.383Z,12.53
2018-04-23T01:53:44.894Z,7.33
2018-04-23T01:56:12.441Z,10.50
2018-04-23T01:58:39.957Z,9.03
2018-04-23T02:01:07.579Z,13.07
2018-04-23T02:03:35.115Z,10.37
2018-04-23T02:06:03.412Z,9.83
2018-04-23T02:08:30.937Z,12.93
2018-04-23T02:10:59.251Z,5.83
2018-04-23T02:13:26.757Z,6.80
2018-04-23T02:15:54.370Z,9.23
2018-04-23T02:18:21.892Z,11.13
2018-04-23T02:20:50.192Z,9.37
2018-04-23T02:23:17.703Z,6.90
2018-04-23T02:25:45.228Z,9.17
2018-04-23T02:28:12.853Z,10.10
2018-04-23T02:30:41.146Z,10.93
2018-04-23T02:33:09.445Z,10.63
2018-04-23T02:35:37.005Z,8.87
2018-04-23T02:38:04.506Z,8.87
2018-04-23T02:40:32.034Z,5.17
2018-04-23T02:42:59.569Z,6.23
2018-04-23T02:45:27.080Z,6.37
2018-04-23T02:47:54.612Z,5.93
2018-04-23T02:50:22.126Z,5.97
2018-04-23T02:52:50.442Z,6.03
2018-04-23T02:55:17.994Z,6.53
2018-04-23T02:57:45.504Z,5.83
2018-04-23T03:00:13.048Z,5.00
2018-04-23T03:02:40.597Z,4.87
2018-04-23T03:05:08.104Z,7.37
2018-04-23T03:07:36.404Z,9.13
2018-04-23T03:10:03.965Z,7.47
2018-04-23T03:12:31.468Z,6.83
2018-04-23T03:14:58.996Z,8.30
2018-04-23T03:17:26.661Z,5.57
2018-04-23T03:19:54.206Z,7.73
2018-04-23T03:22:21.710Z,8.87
2018-04-23T03:24:49.328Z,7.67
2018-04-23T03:27:16.849Z,9.57
2018-04-23T03:29:44.366Z,7.50
2018-04-23T03:32:11.878Z,10.00
2018-04-23T03:34:39.469Z,6.43
2018-04-23T03:37:07.039Z,7.77
2018-04-23T03:39:34.567Z,7.83
2018-04-23T03:42:02.979Z,7.30
2018-04-23T03:44:30.580Z,8.70
2018-04-23T03:46:58.086Z,6.20
2018-04-23T03:49:25.586Z,7.33
2018-04-23T03:51:53.208Z,11.13
2018-04-23T03:54:20.729Z,6.50
2018-04-23T03:56:48.237Z,10.90
2018-04-23T03:59:15.752Z,9.00
2018-04-23T04:01:43.344Z,8.73
2018-04-23T04:04:10.910Z,7.87
2018-04-23T04:06:38.428Z,8.93
2018-04-23T04:09:06.047Z,10.50
2018-04-23T04:11:33.586Z,10.07
2018-04-23T04:14:13.088Z,8.53
2018-04-23T04:16:52.487Z,9.40
2018-04-23T04:19:20.022Z,10.30
2018-04-23T04:21:48.298Z,10.60
2018-04-23T04:24:16.571Z,9.30
2018-04-23T04:26:44.855Z,9.50
2018-04-23T04:29:13.261Z,9.23
2018-04-23T04:31:40.796Z,11.93
2018-04-23T04:34:08.351Z,10.37
2018-04-23T04:36:35.873Z,10.30
2018-04-23T04:39:03.396Z,11.23
2018-04-23T04:41:30.930Z,11.17
2018-04-23T04:43:59.252Z,12.60
2018-04-23T04:46:26.774Z,9.83
2018-04-23T04:48:54.321Z,12.23
2018-04-23T04:51:22.663Z,10.80
2018-04-23T04:53:50.141Z,12.10
2018-04-23T04:56:17.689Z,13.10
2018-04-23T04:58:45.301Z,12.83
2018-04-23T05:01:13.111Z,12.20
2018-04-23T05:03:40.735Z,13.17
2018-04-23T05:06:08.243Z,13.07
2018-04-23T05:08:35.857Z,10.00
2018-04-23T05:11:03.424Z,13.43
2018-04-23T05:13:30.945Z,11.87
2018-04-23T05:15:59.247Z,15.40
2018-04-23T05:18:26.776Z,12.87
2018-04-23T05:20:55.069Z,12.63
2018-04-23T05:23:23.343Z,11.80
2018-04-23T05:25:51.756Z,14.50
2018-04-23T05:28:19.271Z,14.33
2018-04-23T05:30:47.557Z,15.20
2018-04-23T05:33:15.853Z,14.03
2018-04-23T05:35:43.375Z,14.10
2018-04-23T05:38:10.913Z,15.57
2018-04-23T05:40:38.441Z,17.17
2018-04-23T05:43:05.997Z,13.17
2018-04-23T05:45:33.525Z,14.70
2018-04-23T05:48:01.819Z,15.17
2018-04-23T05:50:30.102Z,15.97
2018-04-23T05:52:57.616Z,13.43
2018-04-23T05:55:25.148Z,15.00
2018-04-23T05:57:52.746Z,14.63
2018-04-23T06:00:20.365Z,20.73
2018-04-23T06:02:47.893Z,15.13
2018-04-23T06:05:16.197Z,18.67
2018-04-23T06:07:43.720Z,14.97
2018-04-23T06:10:12.013Z,20.57
2018-04-23T06:12:39.591Z,21.03
2018-04-23T06:15:07.127Z,14.37
2018-04-23T06:17:35.419Z,20.90
2018-04-23T06:20:02.961Z,25.07
2018-04-23T06:22:31.234Z,17.93
2018-04-23T06:24:59.645Z,18.40
2018-04-23T06:27:27.200Z,18.47
2018-04-23T06:29:54.722Z,17.83
2018-04-23T06:32:22.272Z,15.80
2018-04-23T06:34:49.788Z,18.93
2018-04-23T06:37:17.316Z,17.40
2018-04-23T06:39:45.601Z,23.73
2018-04-23T06:42:13.913Z,19.33
2018-04-23T06:44:41.529Z,23.27
2018-04-23T06:47:09.944Z,21.50
2018-04-23T06:49:37.472Z,20.97
2018-04-23T06:52:05.751Z,21.93
2018-04-23T06:54:34.049Z,19.10
2018-04-23T06:57:01.571Z,19.87
2018-04-23T06:59:29.179Z,22.03
2018-04-23T07:01:56.707Z,18.40
2018-04-23T07:04:25.005Z,17.60
2018-04-23T07:06:52.531Z,20.03
2018-04-23T07:09:20.825Z,23.63
2018-04-23T07:11:49.161Z,18.40
2018-04-23T07:14:16.673Z,18.60
2018-04-23T07:16:44.204Z,20.57
2018-04-23T07:19:11.724Z,16.50
2018-04-23T07:21:39.254Z,17.90
2018-04-23T07:24:07.580Z,17.93
2018-04-23T07:26:35.098Z,24.93
2018-04-23T07:29:02.663Z,18.60
2018-04-23T07:31:30.224Z,20.13
2018-04-23T07:33:57.779Z,18.83
2018-04-23T07:36:25.345Z,20.47
2018-04-23T07:38:52.867Z,19.97
2018-04-23T07:41:20.386Z,18.63
2018-04-23T07:43:47.899Z,17.93
2018-04-23T07:46:15.493Z,19.50
2018-04-23T07:48:43.067Z,18.03
2018-04-23T07:51:10.579Z,17.70
2018-04-23T07:53:38.885Z,15.97
2018-04-23T07:56:06.407Z,16.77
2018-04-23T07:58:33.922Z,15.03
2018-04-23T08:01:01.449Z,16.87
2018-04-23T08:03:28.968Z,17.30
2018-04-23T08:05:56.496Z,15.43
2018-04-23T08:08:24.046Z,16.87
2018-04-23T08:10:51.576Z,13.80
2018-04-23T08:13:19.855Z,15.07
2018-04-23T08:15:48.162Z,12.80
2018-04-23T08:18:15.676Z,12.27
2018-04-23T08:20:43.217Z,14.17
2018-04-23T08:23:10.841Z,11.73
2018-04-23T08:25:38.389Z,15.43
2018-04-23T08:28:05.932Z,15.30
2018-04-23T08:30:34.245Z,11.93
2018-04-23T08:33:01.765Z,13.33
2018-04-23T08:35:30.075Z,12.57
2018-04-23T08:37:57.599Z,14.30
2018-04-23T08:40:25.899Z,12.37
2018-04-23T08:42:53.421Z,12.40
2018-04-23T08:45:22.451Z,10.87
2018-04-23T08:47:50.752Z,14.00
2018-04-23T08:50:18.294Z,13.47
2018-04-23T08:52:45.859Z,12.77
2018-04-23T08:55:13.371Z,12.67
2018-04-23T08:57:40.933Z,12.63
2018-04-23T09:00:08.555Z,11.10
2018-04-23T09:02:36.069Z,10.87
2018-04-23T09:05:04.374Z,9.30
2018-04-23T09:07:31.903Z,13.47
2018-04-23T09:09:59.423Z,11.33
2018-04-23T09:12:26.935Z,13.20
2018-04-23T09:14:55.335Z,11.90
2018-04-23T09:17:22.862Z,14.80
2018-04-23T09:19:50.383Z,18.07
2018-04-23T09:22:17.923Z,12.40
2018-04-23T09:24:45.443Z,10.40
2018-04-23T09:27:13.743Z,10.33
2018-04-23T09:29:42.026Z,9.57
2018-04-23T09:32:09.631Z,13.70
2018-04-23T09:34:37.159Z,13.80
2018-04-23T09:37:04.691Z,11.83
2018-04-23T09:39:33.043Z,8.47
2018-04-23T09:42:00.666Z,13.27
2018-04-23T09:44:28.502Z,8.93
2018-04-23T09:46:56.035Z,10.47
2018-04-23T09:49:23.640Z,11.67
2018-04-23T09:51:51.211Z,14.37
2018-04-23T09:54:18.715Z,10.37
2018-04-23T09:56:46.236Z,12.33
2018-04-23T09:59:13.790Z,10.90
2018-04-23T10:01:47.028Z,12.93
2018-04-23T10:04:20.167Z,11.07
2018-04-23T10:06:47.687Z,11.30
2018-04-23T10:09:15.400Z,11.97
2018-04-23T10:11:42.954Z,9.27
2018-04-23T10:14:10.514Z,10.20
2018-04-23T10:16:38.030Z,12.50
2018-04-23T10:19:05.547Z,12.73
2018-04-23T10:21:33.312Z,14.20
2018-04-23T10:24:00.832Z,9.93
2018-04-23T10:26:29.146Z,11.17
2018-04-23T10:28:56.705Z,11.53
2018-04-23T10:31:24.258Z,11.97
2018-04-23T10:33:52.563Z,9.93
2018-04-23T10:36:20.322Z,10.23
2018-04-23T10:38:47.860Z,11.40
2018-04-23T10:41:15.392Z,11.37
2018-04-23T10:43:43.672Z,11.23
2018-04-23T10:46:12.802Z,12.87
2018-04-23T10:48:40.342Z,11.80
2018-04-23T10:53:42.702Z,10.97
2018-04-23T10:56:10.308Z,11.13
2018-04-23T10:58:37.858Z,11.17
2018-04-23T11:01:05.429Z,10.30
2018-04-23T11:03:32.941Z,8.63
2018-04-23T11:06:00.467Z,9.70
2018-04-23T11:08:27.996Z,9.80
2018-04-23T11:10:55.515Z,11.87
2018-04-23T11:13:23.173Z,11.00
2018-04-23T11:15:50.736Z,9.47
2018-04-23T11:18:18.859Z,9.40
2018-04-23T11:20:46.375Z,9.03
2018-04-23T11:23:15.513Z,9.00
2018-04-23T11:25:43.087Z,15.43
2018-04-23T11:28:10.683Z,11.53
2018-04-23T11:30:38.219Z,12.13
2018-04-23T11:33:05.731Z,9.83
2018-04-23T11:35:34.042Z,10.00
2018-04-23T11:38:01.694Z,10.77
2018-04-23T11:40:29.209Z,11.27
2018-04-23T11:42:57.529Z,8.40
2018-04-23T11:45:25.077Z,10.23
2018-04-23T11:47:53.389Z,11.67
2018-04-23T11:50:20.947Z,8.47
2018-04-23T11:52:48.477Z,7.97
2018-04-23T11:55:16.765Z,9.87
2018-04-23T11:57:44.326Z,7.83
2018-04-23T12:00:11.847Z,9.30
2018-04-23T12:02:39.362Z,8.43
2018-04-23T12:05:06.869Z,7.27
2018-04-23T12:07:34.391Z,8.23
2018-04-23T12:10:01.938Z,7.20
2018-04-23T12:12:29.448Z,9.53
2018-04-23T12:14:56.976Z,9.27
2018-04-23T12:17:24.490Z,7.93
2018-04-23T12:19:52.763Z,8.73
2018-04-23T12:22:21.103Z,10.43
2018-04-23T12:24:48.654Z,8.10
2018-04-23T12:27:16.168Z,7.80
2018-04-23T12:29:44.576Z,8.07
2018-04-23T12:32:12.124Z,5.77
2018-04-23T12:34:39.649Z,5.57
2018-04-23T12:37:07.176Z,6.27
2018-04-23T12:39:34.702Z,8.53
2018-04-23T12:42:02.298Z,8.53
2018-04-23T12:44:29.810Z,8.27
2018-04-23T12:46:58.089Z,10.50
2018-04-23T12:49:26.467Z,9.93
2018-04-23T12:51:54.744Z,7.10
2018-04-23T12:54:23.016Z,8.53
2018-04-23T12:56:51.636Z,5.83
2018-04-23T12:59:19.163Z,8.30
2018-04-23T13:01:47.730Z,6.30
2018-04-23T13:04:15.238Z,8.60
2018-04-23T13:06:42.798Z,7.70
2018-04-23T13:09:10.316Z,6.23
2018-04-23T13:11:37.928Z,10.17
2018-04-23T13:14:05.460Z,9.27
2018-04-23T13:16:33.762Z,10.27
2018-04-23T13:19:01.266Z,7.77
2018-04-23T13:21:28.834Z,7.23
2018-04-23T13:23:57.164Z,7.80
2018-04-23T13:26:24.692Z,7.80
2018-04-23T13:28:53.099Z,7.50
2018-04-23T13:31:20.685Z,6.67
2018-04-23T13:33:48.192Z,7.07
2018-04-23T13:36:16.488Z,7.57
2018-04-23T13:38:44.002Z,8.13
2018-04-23T13:41:11.622Z,6.63
2018-04-23T13:43:39.161Z,8.30
2018-04-23T13:46:06.668Z,7.17
2018-04-23T13:48:34.192Z,7.17
2018-04-23T13:51:01.720Z,7.03
2018-04-23T13:53:30.007Z,9.57
2018-04-23T13:55:58.303Z,11.83
2018-04-23T13:58:25.827Z,8.63
2018-04-23T14:00:53.349Z,12.23
2018-04-23T14:03:20.883Z,7.23
2018-04-23T14:05:48.413Z,7.57
2018-04-23T14:08:16.708Z,6.23
2018-04-23T14:10:44.241Z,9.00
2018-04-23T14:13:11.843Z,6.33
2018-04-23T14:15:39.362Z,7.50
2018-04-23T14:18:06.876Z,8.17
2018-04-23T14:20:34.403Z,8.63
2018-04-23T14:23:02.688Z,7.37
2018-04-23T14:25:30.255Z,10.20
2018-04-23T14:27:57.837Z,8.13
2018-04-23T14:30:25.397Z,8.07
2018-04-23T14:32:52.942Z,8.40
2018-04-23T14:35:20.489Z,7.83
2018-04-23T14:37:48.061Z,8.53
2018-04-23T14:40:15.571Z,5.93
2018-04-23T14:42:43.097Z,7.80
2018-04-23T14:45:10.606Z,7.57
2018-04-23T14:47:38.121Z,6.80
2018-04-23T14:50:05.648Z,7.80
2018-04-23T14:52:33.172Z,6.43
2018-04-23T14:55:01.476Z,6.13
2018-04-23T14:57:29.749Z,8.47
2018-04-23T14:59:58.043Z,6.23
2018-04-23T15:02:25.626Z,5.63
2018-04-23T15:04:53.152Z,6.43
2018-04-23T15:07:21.438Z,6.37
2018-04-23T15:09:48.962Z,5.90
2018-04-23T15:12:16.499Z,6.77
2018-04-23T15:14:44.025Z,6.50
2018-04-23T15:17:11.555Z,5.53
2018-04-23T15:19:39.848Z,6.83
2018-04-23T15:22:08.136Z,7.33
2018-04-23T15:24:35.653Z,10.00
2018-04-23T15:27:03.184Z,6.30
2018-04-23T15:29:30.700Z,8.00
2018-04-23T15:31:58.981Z,6.10
2018-04-23T15:34:26.530Z,6.20
2018-04-23T15:36:54.812Z,6.10
2018-04-23T15:39:23.100Z,4.77
2018-04-23T15:41:50.658Z,6.83
2018-04-23T15:44:18.957Z,5.83
2018-04-23T15:46:46.518Z,4.83
2018-04-23T15:49:14.066Z,4.63
2018-04-23T15:51:41.611Z,4.30
2018-04-23T15:54:09.886Z,6.23
2018-04-23T15:56:38.193Z,6.27
2018-04-23T15:59:05.753Z,4.93
2018-04-23T16:01:33.291Z,5.10
2018-04-23T16:04:01.697Z,5.27
2018-04-23T16:06:29.228Z,5.90
2018-04-23T16:08:57.512Z,5.00
2018-04-23T16:11:25.055Z,4.93
2018-04-23T16:13:53.357Z,5.17
2018-04-23T16:16:20.870Z,9.33
2018-04-23T16:18:48.420Z,3.93
2018-04-23T16:21:15.936Z,3.10
2018-04-23T16:23:43.448Z,4.20
2018-04-23T16:26:11.058Z,7.00
2018-04-23T16:28:38.632Z,5.50
2018-04-23T16:31:06.154Z,3.53
2018-04-23T16:33:34.449Z,5.00
2018-04-23T16:36:02.025Z,4.70
2018-04-23T16:38:29.584Z,6.90
2018-04-23T16:40:57.111Z,3.57
2018-04-23T16:43:25.452Z,5.03
2018-04-23T16:45:52.936Z,3.50
2018-04-23T16:48:20.446Z,6.87
2018-04-23T16:50:47.954Z,3.50
2018-04-23T16:53:15.485Z,3.90
2018-04-23T16:55:43.012Z,4.33
2018-04-23T16:58:10.593Z,5.57
2018-04-23T17:00:38.114Z,4.40
2018-04-23T17:03:06.406Z,4.13
2018-04-23T17:05:33.916Z,6.47
2018-04-23T17:08:01.597Z,6.40
2018-04-23T17:10:29.079Z,5.40
2018-04-23T17:12:56.652Z,3.40
2018-04-23T17:15:24.167Z,6.47
2018-04-23T17:17:51.683Z,4.87
2018-04-23T17:20:19.186Z,3.20
2018-04-23T17:22:46.726Z,7.10
2018-04-23T17:25:14.258Z,5.23
2018-04-23T17:27:41.782Z,4.90
2018-04-23T17:30:10.110Z,4.93
2018-04-23T17:32:37.660Z,5.40
2018-04-23T17:35:05.200Z,5.13
2018-04-23T17:37:33.498Z,4.40
2018-04-23T17:40:01.020Z,5.43
2018-04-23T17:42:29.307Z,5.97
2018-04-23T17:44:57.575Z,6.37
2018-04-23T17:47:25.877Z,4.40
2018-04-23T17:49:53.428Z,4.17
2018-04-23T17:52:21.706Z,5.17
2018-04-23T17:54:49.249Z,5.50
2018-04-23T17:57:17.527Z,5.53
2018-04-23T17:59:45.836Z,5.47
2018-04-23T18:02:13.353Z,5.30
2018-04-23T18:04:41.631Z,3.97
2018-04-23T18:07:09.245Z,4.77
2018-04-23T18:09:36.777Z,4.93
2018-04-23T18:12:05.082Z,6.27
2018-04-23T18:14:32.588Z,4.03
2018-04-23T18:17:00.881Z,6.63
2018-04-23T18:19:29.168Z,4.53
2018-04-23T18:21:57.442Z,5.00
2018-04-23T18:24:25.728Z,5.17
2018-04-23T18:26:53.249Z,6.53
2018-04-23T18:29:20.755Z,7.33
2018-04-23T18:31:48.288Z,4.37
2018-04-23T18:34:16.585Z,4.83
2018-04-23T18:36:44.923Z,4.03
2018-04-23T18:39:12.443Z,6.27
2018-04-23T18:41:39.983Z,3.80
2018-04-23T18:44:08.327Z,8.07
2018-04-23T18:46:35.949Z,4.53
2018-04-23T18:49:03.476Z,5.07
2018-04-23T18:51:31.754Z,5.67
2018-04-23T18:54:00.050Z,3.67
2018-04-23T18:56:27.564Z,4.67
2018-04-23T18:58:55.083Z,6.80
2018-04-23T19:01:22.610Z,5.20
2018-04-23T19:03:50.908Z,7.30
2018-04-23T19:06:18.433Z,5.60
2018-04-23T19:08:46.060Z,11.77
2018-04-23T19:11:13.687Z,8.53
2018-04-23T19:13:41.245Z,6.00
2018-04-23T19:16:08.777Z,7.53
2018-04-23T19:18:36.378Z,7.77
2018-04-23T19:21:03.917Z,8.23
2018-04-23T19:23:32.219Z,7.17
2018-04-23T19:25:59.748Z,7.90
2018-04-23T19:28:28.175Z,4.00
2018-04-23T19:30:55.823Z,7.03
2018-04-23T19:33:23.337Z,5.63
2018-04-23T19:35:51.717Z,5.67
2018-04-23T19:38:19.179Z,7.03
2018-04-23T19:40:47.461Z,9.70
2018-04-23T19:43:15.749Z,6.80
2018-04-23T19:45:44.063Z,7.10
2018-04-23T19:48:11.585Z,6.97
2018-04-23T19:50:39.859Z,4.77
2018-04-23T19:53:08.270Z,10.57
2018-04-23T19:55:35.774Z,7.13
2018-04-23T19:58:03.299Z,8.00
2018-04-23T20:00:30.890Z,5.27
2018-04-23T20:02:58.373Z,7.60
2018-04-23T20:05:26.658Z,6.93
2018-04-23T20:07:54.952Z,7.03
2018-04-23T20:10:22.508Z,5.53
2018-04-23T20:12:50.027Z,5.30
2018-04-23T20:15:18.348Z,6.37
2018-04-23T20:17:45.926Z,7.87
2018-04-23T20:20:13.446Z,9.30
2018-04-23T20:22:41.848Z,6.03
2018-04-23T20:25:09.358Z,6.00
2018-04-23T20:27:36.871Z,4.67
2018-04-23T20:30:04.406Z,4.43
2018-04-23T20:32:32.716Z,6.97
2018-04-23T20:35:00.229Z,4.80
2018-04-23T20:37:27.755Z,6.20
2018-04-23T20:39:55.261Z,5.33
2018-04-23T20:42:23.535Z,6.03
2018-04-23T20:44:51.832Z,9.50
2018-04-23T20:47:20.110Z,5.40
2018-04-23T20:49:47.645Z,8.20
2018-04-23T20:52:15.246Z,4.63
2018-04-23T20:54:42.801Z,5.27
2018-04-23T20:57:10.320Z,5.10
2018-04-23T20:59:37.930Z,8.43
2018-04-23T21:02:05.446Z,6.97
2018-04-23T21:04:33.786Z,5.23
2018-04-23T21:07:01.296Z,4.93
2018-04-23T21:09:29.599Z,7.90
2018-04-23T21:11:57.157Z,7.93
2018-04-23T21:14:24.720Z,6.47
2018-04-23T21:16:52.238Z,6.33
2018-04-23T21:19:19.746Z,8.13
2018-04-23T21:21:47.412Z,5.67
2018-04-23T21:24:14.934Z,6.30
2018-04-23T21:26:43.216Z,6.77
2018-04-23T21:29:12.476Z,7.03
2018-04-23T21:31:40.006Z,4.67
2018-04-23T21:34:07.538Z,5.47
2018-04-23T21:36:35.825Z,8.77
2018-04-23T21:39:03.350Z,6.00
2018-04-23T21:41:30.960Z,4.77
2018-04-23T21:43:58.480Z,4.80
2018-04-23T21:46:25.997Z,5.90
2018-04-23T21:48:53.542Z,6.00
2018-04-23T21:51:21.065Z,4.40
2018-04-23T21:53:49.351Z,4.77
2018-04-23T21:56:17.637Z,3.77
2018-04-23T21:58:45.924Z,2.67
2018-04-23T22:01:13.496Z,3.50
2018-04-23T22:03:41.021Z,6.27
2018-04-23T22:06:09.312Z,4.70
2018-04-23T22:08:37.607Z,4.60
2018-04-23T22:11:05.115Z,5.93
2018-04-23T22:13:32.650Z,3.77
2018-04-23T22:16:00.165Z,3.37
2018-04-23T22:18:28.446Z,4.40
2018-04-23T22:20:56.741Z,3.20
2018-04-23T22:23:24.245Z,5.03
2018-04-23T22:25:51.864Z,3.33
2018-04-23T22:28:19.526Z,2.73
2018-04-23T22:30:47.076Z,3.43
2018-04-23T22:33:14.588Z,5.50
2018-04-23T22:35:42.194Z,2.87
2018-04-23T22:38:09.702Z,4.97
2018-04-23T22:40:37.218Z,7.10
2018-04-23T22:43:04.778Z,4.90
2018-04-23T22:45:32.296Z,3.13
2018-04-23T22:48:01.347Z,4.87
2018-04-23T22:50:28.874Z,6.37
2018-04-23T22:52:57.168Z,5.07
2018-04-23T22:55:24.741Z,5.03
2018-04-23T22:57:52.304Z,3.63
2018-04-23T23:00:19.858Z,5.77
2018-04-23T23:02:47.385Z,3.83
2018-04-23T23:05:15.699Z,3.93
2018-04-23T23:07:43.217Z,4.83
2018-04-23T23:10:10.743Z,5.00
2018-04-23T23:12:38.263Z,9.80
2018-04-23T23:15:05.842Z,3.53
2018-04-23T23:17:33.403Z,3.87
2018-04-23T23:20:00.929Z,4.20
2018-04-23T23:22:29.210Z,4.40
2018-04-23T23:24:57.500Z,4.93
2018-04-23T23:27:25.059Z,5.37
2018-04-23T23:29:52.545Z,5.97
2018-04-23T23:32:20.068Z,6.83
2018-04-23T23:34:48.346Z,6.70
2018-04-23T23:37:16.649Z,5.07
2018-04-23T23:39:44.160Z,5.00
2018-04-23T23:42:11.819Z,4.60
2018-04-23T23:44:39.433Z,5.13
2018-04-23T23:47:06.943Z,9.07
2018-04-23T23:49:34.454Z,7.70
2018-04-23T23:52:02.000Z,7.43
2018-04-23T23:54:29.516Z,6.00
2018-04-23T23:56:57.136Z,6.17
2018-04-23T23:59:24.658Z,5.63
